Palmer Municipal Airport Palmer US
ICAO: PAAQ
IATA:
Category: Medium
Scheduled Services:

Elevation: 242 ft
TransAlt. 18000 ft.

Airport Communications:
ANCHORAGE CNTR:118.6
ASOS:134.75
CTAF:123.6
RDO:123.6
KENAI RDO:123.6

PAAQ Zoom In..

If you have problems with the map follow the link
https://www.worldairports.se/pages/airport.php?
ICAO=PAAQ

Runways:

(A) RW 09 length 3617 ft width 75 ft
---- / hdg 93

(B) RW 16 length 6009 ft width 100 ft
---- / hdg 160

(C) RW 27 length 3617 ft width 75 ft
---- / hdg 273

(D) RW 34 length 6009 ft width 100 ft
---- / hdg 340

Location; PAAQ
Day. 22 / Time. 13.53 Zulu
* Altimeter: 29.61
* Temperature: -12° c. -10.4°f.
* Wind from: 010° Speed 04 kn.
Dewpoint: -13° c.
Visibility: 3 Statute Miles.
Clouds: Broken 3700 ft.
Clouds: Overcast 5000 ft.
Conditions: Light Snow.Conditions: Mist.

PAAQ 221353Z AUTO 01004KT 3SM -SN BR BKN037 OVC050 M12/M13 A2961 RMK AO2 SLP034 P0001 T11171133 TSNO


Wind From 010°
Speed 04 kn.

 
 
jpsmedia worldairports.se 2020   terms of use